IGO2347 VABB-VAAH
Flight info
| Callsign | IGO2347 |
|---|---|
| Flight time | 0h 45m |
| Altitude | 33000 |
| Route | ANOLI2A ISRIS G208 APANO APANO1A |
| Aircraft | A320/M-SDE3FGHIRWY/LB1 |
Departure
| Time | 2026-04-25 19:04 |
|---|---|
| Airport | Chhatrapati Shivaji Maharaj International Airport (VABB) |
Arrival
| Time | 2026-04-25 19:49 |
|---|---|
| Airport | Sardar Vallabh Patel International Airport (VAAH) |
| Time | Latitude | Longitude | Altitude | Speed | Heading |
|---|---|---|---|---|---|
| 2026-04-25 18:43 | 19.09155 | 72.85367 | 25 ft | 0 kts | 359° |
| 2026-04-25 18:52 | 19.09146 | 72.85368 | 28 ft | 2 kts | 0° |
| 2026-04-25 18:53 | 19.09130 | 72.85367 | 29 ft | 2 kts | 6° |
| 2026-04-25 18:53 | 19.09114 | 72.85364 | 25 ft | 2 kts | 19° |
| 2026-04-25 18:53 | 19.09098 | 72.85357 | 27 ft | 2 kts | 52° |
| 2026-04-25 18:53 | 19.09090 | 72.85342 | 30 ft | 2 kts | 88° |
| 2026-04-25 18:54 | 19.09090 | 72.85335 | 29 ft | 0 kts | 90° |
| 2026-04-25 18:54 | 19.09090 | 72.85339 | 30 ft | 1 kts | 91° |
| 2026-04-25 18:57 | 19.09090 | 72.85340 | 25 ft | 1 kts | 91° |
| 2026-04-25 18:57 | 19.09089 | 72.85354 | 27 ft | 3 kts | 91° |
| 2026-04-25 18:57 | 19.09089 | 72.85362 | 25 ft | 4 kts | 91° |
| 2026-04-25 18:58 | 19.09089 | 72.85389 | 25 ft | 6 kts | 91° |
| 2026-04-25 18:58 | 19.09091 | 72.85509 | 25 ft | 11 kts | 90° |
| 2026-04-25 18:58 | 19.09073 | 72.85589 | 27 ft | 12 kts | 146° |
| 2026-04-25 18:59 | 19.09026 | 72.85761 | 25 ft | 16 kts | 89° |
| 2026-04-25 18:59 | 19.09030 | 72.86037 | 24 ft | 22 kts | 89° |
| 2026-04-25 19:00 | 19.09037 | 72.86392 | 24 ft | 26 kts | 89° |
| 2026-04-25 19:00 | 19.09039 | 72.86591 | 25 ft | 28 kts | 89° |
| 2026-04-25 19:01 | 19.09043 | 72.87027 | 26 ft | 32 kts | 90° |
| 2026-04-25 19:01 | 19.09044 | 72.87266 | 26 ft | 33 kts | 89° |
| 2026-04-25 19:01 | 19.09050 | 72.87517 | 25 ft | 35 kts | 88° |
| 2026-04-25 19:01 | 19.09056 | 72.87729 | 25 ft | 0 kts | 91° |
| 2026-04-25 19:02 | 19.09051 | 72.87774 | 25 ft | 6 kts | 101° |
| 2026-04-25 19:02 | 19.09017 | 72.87807 | 27 ft | 8 kts | 175° |
| 2026-04-25 19:02 | 19.08952 | 72.87806 | 24 ft | 11 kts | 180° |
| 2026-04-25 19:03 | 19.08884 | 72.87755 | 24 ft | 12 kts | 271° |
| 2026-04-25 19:03 | 19.08884 | 72.87267 | 27 ft | 92 kts | 270° |
| 2026-04-25 19:03 | 19.08867 | 72.86381 | 25 ft | 146 kts | 269° |
| 2026-04-25 19:04 | 19.08853 | 72.84341 | 750 ft | 169 kts | 272° |
| 2026-04-25 19:04 | 19.08837 | 72.82671 | 1677 ft | 170 kts | 273° |
| 2026-04-25 19:05 | 19.08790 | 72.80485 | 2215 ft | 194 kts | 272° |
| 2026-04-25 19:05 | 19.08766 | 72.77283 | 2608 ft | 242 kts | 277° |
| 2026-04-25 19:05 | 19.09230 | 72.75491 | 2968 ft | 258 kts | 302° |
| 2026-04-25 19:06 | 19.10458 | 72.74105 | 3627 ft | 263 kts | 330° |
| 2026-04-25 19:06 | 19.14069 | 72.73707 | 5160 ft | 272 kts | 6° |
| 2026-04-25 19:06 | 19.15964 | 72.73954 | 5956 ft | 277 kts | 6° |
| 2026-04-25 19:07 | 19.19862 | 72.74479 | 7486 ft | 287 kts | 7° |
| 2026-04-25 19:07 | 19.21860 | 72.74746 | 8267 ft | 292 kts | 7° |
| 2026-04-25 19:08 | 19.25955 | 72.75275 | 9853 ft | 301 kts | 7° |
| 2026-04-25 19:08 | 19.28094 | 72.75548 | 10252 ft | 321 kts | 7° |
| 2026-04-25 19:09 | 19.35170 | 72.76454 | 11977 ft | 351 kts | 8° |
| 2026-04-25 19:09 | 19.36815 | 72.76665 | 12487 ft | 354 kts | 8° |
| 2026-04-25 19:09 | 19.42611 | 72.77407 | 14218 ft | 363 kts | 8° |
| 2026-04-25 19:10 | 19.45133 | 72.77732 | 14908 ft | 367 kts | 8° |
| 2026-04-25 19:10 | 19.47678 | 72.78060 | 15599 ft | 370 kts | 8° |
| 2026-04-25 19:10 | 19.50248 | 72.78387 | 16291 ft | 374 kts | 8° |
| 2026-04-25 19:10 | 19.52836 | 72.78715 | 16987 ft | 377 kts | 7° |
| 2026-04-25 19:11 | 19.55449 | 72.79049 | 17681 ft | 380 kts | 7° |
| 2026-04-25 19:11 | 19.58083 | 72.79386 | 18335 ft | 383 kts | 7° |
| 2026-04-25 19:11 | 19.60736 | 72.79728 | 18915 ft | 386 kts | 7° |
| 2026-04-25 19:11 | 19.63413 | 72.80076 | 19497 ft | 389 kts | 7° |
| 2026-04-25 19:12 | 19.66118 | 72.80428 | 20090 ft | 393 kts | 7° |
| 2026-04-25 19:12 | 19.68842 | 72.80780 | 20684 ft | 397 kts | 7° |
| 2026-04-25 19:12 | 19.71592 | 72.81137 | 21266 ft | 400 kts | 7° |
| 2026-04-25 19:12 | 19.74373 | 72.81498 | 21837 ft | 404 kts | 7° |
| 2026-04-25 19:13 | 19.77171 | 72.81859 | 22421 ft | 408 kts | 7° |
| 2026-04-25 19:13 | 19.80005 | 72.82221 | 23024 ft | 411 kts | 7° |
| 2026-04-25 19:13 | 19.82859 | 72.82585 | 23586 ft | 415 kts | 7° |
| 2026-04-25 19:13 | 19.85744 | 72.82953 | 24015 ft | 422 kts | 6° |
| 2026-04-25 19:14 | 19.88705 | 72.83331 | 24227 ft | 434 kts | 6° |
| 2026-04-25 19:14 | 19.90743 | 72.83592 | 24491 ft | 438 kts | 6° |
| 2026-04-25 19:14 | 19.94781 | 72.84112 | 25093 ft | 444 kts | 6° |
| 2026-04-25 19:14 | 19.97867 | 72.84513 | 25570 ft | 449 kts | 6° |
| 2026-04-25 19:15 | 20.01019 | 72.84923 | 26044 ft | 453 kts | 5° |
| 2026-04-25 19:15 | 20.04162 | 72.85329 | 26511 ft | 457 kts | 5° |
| 2026-04-25 19:15 | 20.07339 | 72.85739 | 26962 ft | 461 kts | 5° |
| 2026-04-25 19:15 | 20.10536 | 72.86152 | 27415 ft | 465 kts | 5° |
| 2026-04-25 19:16 | 20.13762 | 72.86570 | 27856 ft | 469 kts | 5° |
| 2026-04-25 19:16 | 20.17062 | 72.87001 | 28299 ft | 473 kts | 5° |
| 2026-04-25 19:16 | 20.20336 | 72.87429 | 28721 ft | 476 kts | 5° |
| 2026-04-25 19:16 | 20.23634 | 72.87859 | 29138 ft | 479 kts | 5° |
| 2026-04-25 19:17 | 20.26957 | 72.88292 | 29558 ft | 483 kts | 5° |
| 2026-04-25 19:17 | 20.30294 | 72.88726 | 29996 ft | 484 kts | 5° |
| 2026-04-25 19:17 | 20.33634 | 72.89158 | 30493 ft | 483 kts | 5° |
| 2026-04-25 19:17 | 20.36980 | 72.89588 | 30942 ft | 483 kts | 4° |
| 2026-04-25 19:18 | 20.40320 | 72.90018 | 31352 ft | 484 kts | 4° |
| 2026-04-25 19:18 | 20.43709 | 72.90457 | 31763 ft | 484 kts | 4° |
| 2026-04-25 19:18 | 20.47058 | 72.90891 | 32172 ft | 485 kts | 4° |
| 2026-04-25 19:18 | 20.50402 | 72.91325 | 32578 ft | 485 kts | 4° |
| 2026-04-25 19:19 | 20.53762 | 72.91759 | 32809 ft | 486 kts | 3° |
| 2026-04-25 19:19 | 20.60474 | 72.92631 | 32856 ft | 485 kts | 4° |
| 2026-04-25 19:20 | 20.67151 | 72.93507 | 32854 ft | 482 kts | 4° |
| 2026-04-25 19:20 | 20.73800 | 72.94378 | 32855 ft | 480 kts | 4° |
| 2026-04-25 19:21 | 20.80430 | 72.94815 | 32856 ft | 476 kts | 360° |
| 2026-04-25 19:21 | 20.90374 | 72.95171 | 32860 ft | 474 kts | 0° |
| 2026-04-25 19:22 | 20.96951 | 72.95400 | 32865 ft | 473 kts | 0° |
| 2026-04-25 19:23 | 21.06839 | 72.95765 | 32866 ft | 470 kts | 1° |
| 2026-04-25 19:23 | 21.16637 | 72.96132 | 32867 ft | 468 kts | 1° |
| 2026-04-25 19:24 | 21.23140 | 72.96404 | 32866 ft | 467 kts | 2° |
| 2026-04-25 19:25 | 21.36079 | 72.97113 | 32865 ft | 465 kts | 3° |
| 2026-04-25 19:25 | 21.42529 | 72.97458 | 32864 ft | 463 kts | 3° |
| 2026-04-25 19:26 | 21.48965 | 72.97788 | 32863 ft | 462 kts | 3° |
| 2026-04-25 19:26 | 21.55383 | 72.98116 | 32864 ft | 461 kts | 4° |
| 2026-04-25 19:27 | 21.59668 | 72.98223 | 32665 ft | 461 kts | 359° |
| 2026-04-25 19:27 | 21.65027 | 72.97957 | 32033 ft | 459 kts | 359° |
| 2026-04-25 19:27 | 21.68224 | 72.97789 | 31321 ft | 461 kts | 359° |
| 2026-04-25 19:28 | 21.71456 | 72.97618 | 30274 ft | 468 kts | 359° |
| 2026-04-25 19:28 | 21.74723 | 72.97448 | 29055 ft | 470 kts | 359° |
| 2026-04-25 19:28 | 21.77934 | 72.97278 | 28513 ft | 453 kts | 359° |
| 2026-04-25 19:28 | 21.81064 | 72.97113 | 27871 ft | 448 kts | 359° |
| 2026-04-25 19:29 | 21.84164 | 72.96953 | 27217 ft | 444 kts | 359° |
| 2026-04-25 19:29 | 21.87242 | 72.96799 | 26564 ft | 441 kts | 359° |
| 2026-04-25 19:29 | 21.90303 | 72.96647 | 25919 ft | 438 kts | 359° |
| 2026-04-25 19:29 | 21.93337 | 72.96495 | 25276 ft | 436 kts | 359° |
| 2026-04-25 19:30 | 21.96360 | 72.96342 | 24638 ft | 433 kts | 358° |
| 2026-04-25 19:30 | 21.99362 | 72.96192 | 24000 ft | 431 kts | 358° |
| 2026-04-25 19:30 | 22.02355 | 72.96042 | 23362 ft | 429 kts | 358° |
| 2026-04-25 19:30 | 22.05333 | 72.95891 | 22680 ft | 426 kts | 358° |
| 2026-04-25 19:31 | 22.08276 | 72.95740 | 22087 ft | 421 kts | 358° |
| 2026-04-25 19:31 | 22.11193 | 72.95589 | 21506 ft | 417 kts | 358° |
| 2026-04-25 19:31 | 22.14077 | 72.95438 | 20953 ft | 413 kts | 358° |
| 2026-04-25 19:31 | 22.15975 | 72.95339 | 20590 ft | 411 kts | 358° |
| 2026-04-25 19:32 | 22.18824 | 72.95195 | 20051 ft | 408 kts | 358° |
| 2026-04-25 19:32 | 22.21690 | 72.95054 | 19507 ft | 405 kts | 358° |
| 2026-04-25 19:32 | 22.24500 | 72.94916 | 18972 ft | 403 kts | 358° |
| 2026-04-25 19:32 | 22.26346 | 72.94824 | 18617 ft | 401 kts | 358° |
| 2026-04-25 19:33 | 22.30066 | 72.94637 | 17827 ft | 398 kts | 357° |
| 2026-04-25 19:33 | 22.32822 | 72.94493 | 17259 ft | 395 kts | 358° |
| 2026-04-25 19:33 | 22.35553 | 72.94350 | 16686 ft | 392 kts | 358° |
| 2026-04-25 19:33 | 22.38262 | 72.94207 | 16098 ft | 389 kts | 358° |
| 2026-04-25 19:34 | 22.40956 | 72.94067 | 15534 ft | 386 kts | 358° |
| 2026-04-25 19:34 | 22.43631 | 72.93928 | 14931 ft | 384 kts | 358° |
| 2026-04-25 19:34 | 22.46291 | 72.93790 | 14343 ft | 382 kts | 358° |
| 2026-04-25 19:34 | 22.48943 | 72.93652 | 13749 ft | 381 kts | 358° |
| 2026-04-25 19:35 | 22.51585 | 72.93518 | 13098 ft | 379 kts | 358° |
| 2026-04-25 19:35 | 22.54209 | 72.93384 | 12525 ft | 376 kts | 358° |
| 2026-04-25 19:35 | 22.56816 | 72.93249 | 11923 ft | 373 kts | 358° |
| 2026-04-25 19:35 | 22.59400 | 72.93116 | 11325 ft | 371 kts | 358° |
| 2026-04-25 19:36 | 22.61966 | 72.92982 | 10748 ft | 368 kts | 358° |
| 2026-04-25 19:36 | 22.64503 | 72.92851 | 10398 ft | 358 kts | 358° |
| 2026-04-25 19:36 | 22.66896 | 72.92728 | 10287 ft | 331 kts | 358° |
| 2026-04-25 19:36 | 22.69111 | 72.92615 | 10073 ft | 310 kts | 358° |
| 2026-04-25 19:37 | 22.71237 | 72.92506 | 9937 ft | 312 kts | 358° |
| 2026-04-25 19:37 | 22.73405 | 72.92396 | 9735 ft | 308 kts | 358° |
| 2026-04-25 19:37 | 22.75514 | 72.92288 | 9614 ft | 298 kts | 358° |
| 2026-04-25 19:37 | 22.77550 | 72.92185 | 9490 ft | 289 kts | 358° |
| 2026-04-25 19:38 | 22.79531 | 72.92083 | 9356 ft | 281 kts | 358° |
| 2026-04-25 19:38 | 22.81452 | 72.91983 | 9236 ft | 272 kts | 358° |
| 2026-04-25 19:38 | 22.83322 | 72.91884 | 9108 ft | 266 kts | 358° |
| 2026-04-25 19:38 | 22.85260 | 72.91783 | 8990 ft | 289 kts | 358° |
| 2026-04-25 19:39 | 22.87288 | 72.91678 | 8760 ft | 293 kts | 358° |
| 2026-04-25 19:39 | 22.89324 | 72.91574 | 8517 ft | 292 kts | 358° |
| 2026-04-25 19:39 | 22.91351 | 72.91468 | 8272 ft | 291 kts | 357° |
| 2026-04-25 19:39 | 22.93366 | 72.91363 | 8030 ft | 290 kts | 357° |
| 2026-04-25 19:40 | 22.95363 | 72.91261 | 7798 ft | 289 kts | 357° |
| 2026-04-25 19:40 | 22.97362 | 72.91161 | 7557 ft | 287 kts | 357° |
| 2026-04-25 19:40 | 22.99359 | 72.91060 | 7320 ft | 286 kts | 356° |
| 2026-04-25 19:40 | 23.01370 | 72.90957 | 7077 ft | 285 kts | 356° |
| 2026-04-25 19:41 | 23.03326 | 72.90855 | 6862 ft | 284 kts | 356° |
| 2026-04-25 19:41 | 23.05315 | 72.90748 | 6625 ft | 280 kts | 356° |
| 2026-04-25 19:41 | 23.07248 | 72.90646 | 6393 ft | 276 kts | 356° |
| 2026-04-25 19:41 | 23.08514 | 72.90580 | 6244 ft | 274 kts | 356° |
| 2026-04-25 19:42 | 23.11038 | 72.90450 | 5921 ft | 269 kts | 356° |
| 2026-04-25 19:42 | 23.12902 | 72.90356 | 5681 ft | 266 kts | 355° |
| 2026-04-25 19:42 | 23.14738 | 72.90228 | 5444 ft | 262 kts | 348° |
| 2026-04-25 19:42 | 23.16393 | 72.89520 | 5206 ft | 252 kts | 323° |
| 2026-04-25 19:43 | 23.17602 | 72.88221 | 4971 ft | 239 kts | 309° |
| 2026-04-25 19:43 | 23.18443 | 72.87147 | 4784 ft | 234 kts | 309° |
| 2026-04-25 19:43 | 23.19497 | 72.85802 | 4557 ft | 230 kts | 309° |
| 2026-04-25 19:43 | 23.20532 | 72.84487 | 4310 ft | 227 kts | 309° |
| 2026-04-25 19:44 | 23.21480 | 72.83120 | 3952 ft | 228 kts | 296° |
| 2026-04-25 19:44 | 23.21965 | 72.81522 | 3773 ft | 220 kts | 277° |
| 2026-04-25 19:44 | 23.21939 | 72.79897 | 3621 ft | 213 kts | 259° |
| 2026-04-25 19:44 | 23.21447 | 72.78404 | 3426 ft | 209 kts | 242° |
| 2026-04-25 19:45 | 23.20546 | 72.77169 | 3197 ft | 209 kts | 226° |
| 2026-04-25 19:45 | 23.19515 | 72.76068 | 2941 ft | 208 kts | 227° |
| 2026-04-25 19:45 | 23.18484 | 72.74964 | 2681 ft | 207 kts | 227° |
| 2026-04-25 19:45 | 23.17475 | 72.73884 | 2437 ft | 199 kts | 227° |
| 2026-04-25 19:46 | 23.16528 | 72.72871 | 2191 ft | 184 kts | 227° |
| 2026-04-25 19:46 | 23.15652 | 72.71934 | 1963 ft | 170 kts | 227° |
| 2026-04-25 19:46 | 23.14850 | 72.71075 | 1760 ft | 155 kts | 228° |
| 2026-04-25 19:46 | 23.14106 | 72.70278 | 1579 ft | 146 kts | 229° |
| 2026-04-25 19:47 | 23.13391 | 72.69512 | 1386 ft | 144 kts | 228° |
| 2026-04-25 19:47 | 23.12685 | 72.68755 | 1213 ft | 142 kts | 228° |
| 2026-04-25 19:47 | 23.11978 | 72.67999 | 1046 ft | 144 kts | 227° |
| 2026-04-25 19:47 | 23.11256 | 72.67227 | 887 ft | 143 kts | 226° |
| 2026-04-25 19:48 | 23.10559 | 72.66478 | 692 ft | 142 kts | 225° |
| 2026-04-25 19:48 | 23.09856 | 72.65727 | 536 ft | 141 kts | 224° |
| 2026-04-25 19:48 | 23.09158 | 72.64980 | 327 ft | 141 kts | 225° |
| 2026-04-25 19:48 | 23.08463 | 72.64235 | 209 ft | 130 kts | 225° |
| 2026-04-25 19:49 | 23.07932 | 72.63667 | 203 ft | 83 kts | 224° |
| 2026-04-25 19:49 | 23.07812 | 72.63540 | 201 ft | 67 kts | 224° |
| 2026-04-25 19:49 | 23.07347 | 72.63043 | 205 ft | 53 kts | 225° |
| 2026-04-25 19:49 | 23.07183 | 72.62817 | 193 ft | 20 kts | 263° |
| 2026-04-25 19:50 | 23.07173 | 72.62570 | 198 ft | 15 kts | 326° |
| 2026-04-25 19:50 | 23.07257 | 72.62491 | 200 ft | 14 kts | 316° |
| 2026-04-25 19:50 | 23.07320 | 72.62425 | 194 ft | 6 kts | 316° |
| 2026-04-25 19:51 | 23.07332 | 72.62411 | 191 ft | 2 kts | 315° |
| 2026-04-25 19:51 | 23.07335 | 72.62409 | 191 ft | 0 kts | 315° |